createdAt,value
2018-01-15T00:00:37.009Z,1016.2
2018-01-15T00:01:39.414Z,1016.2
2018-01-15T00:02:41.815Z,1016.2
2018-01-15T00:03:44.506Z,1016.1
2018-01-15T00:04:46.909Z,1016.2
2018-01-15T00:05:49.586Z,1016.1
2018-01-15T00:06:51.995Z,1016.1
2018-01-15T00:07:54.395Z,1016.1
2018-01-15T00:08:56.800Z,1016.1
2018-01-15T00:09:59.205Z,1016.1
2018-01-15T00:11:01.605Z,1016
2018-01-15T00:12:04.008Z,1016
2018-01-15T00:13:06.417Z,1015.9
2018-01-15T00:14:08.807Z,1015.9
2018-01-15T00:15:11.507Z,1015.9
2018-01-15T00:16:13.906Z,1015.9
2018-01-15T00:17:16.311Z,1015.9
2018-01-15T00:18:18.751Z,1015.8
2018-01-15T00:19:21.112Z,1015.8
2018-01-15T00:20:23.513Z,1015.8
2018-01-15T00:21:25.919Z,1015.8
2018-01-15T00:22:28.335Z,1015.8
2018-01-15T00:23:30.743Z,1015.8
2018-01-15T00:24:33.144Z,1015.7
2018-01-15T00:25:35.540Z,1015.7
2018-01-15T00:26:38.226Z,1015.8
2018-01-15T00:27:40.626Z,1015.7
2018-01-15T00:28:43.027Z,1015.6
2018-01-15T00:29:45.424Z,1015.7
2018-01-15T00:30:47.825Z,1015.5
2018-01-15T00:31:50.514Z,1015.5
2018-01-15T00:32:52.928Z,1015.5
2018-01-15T00:33:55.327Z,1015.5
2018-01-15T00:34:58.011Z,1015.4
2018-01-15T00:36:00.401Z,1015.5
2018-01-15T00:37:02.809Z,1015.4
2018-01-15T00:38:05.205Z,1015.3
2018-01-15T00:39:07.610Z,1015.4
2018-01-15T00:40:10.296Z,1015.4
2018-01-15T00:41:12.706Z,1015.4
2018-01-15T00:42:15.104Z,1015.4
2018-01-15T00:43:17.785Z,1015.4
2018-01-15T00:44:20.183Z,1015.4
2018-01-15T00:45:22.581Z,1015.4
2018-01-15T00:46:24.983Z,1015.4
2018-01-15T00:47:27.391Z,1015.4
2018-01-15T00:48:29.780Z,1015.3
2018-01-15T00:49:32.187Z,1015.3
2018-01-15T00:50:34.585Z,1015.3
2018-01-15T00:51:36.987Z,1015.3
2018-01-15T00:52:39.392Z,1015.3
2018-01-15T00:53:41.795Z,1015.3
2018-01-15T00:54:44.196Z,1015.3
2018-01-15T00:55:46.587Z,1015.3
2018-01-15T00:56:48.980Z,1015.3
2018-01-15T00:57:51.397Z,1015.2
2018-01-15T00:58:53.794Z,1015.1
2018-01-15T00:59:56.204Z,1015.1
2018-01-15T01:00:58.602Z,1015.1
2018-01-15T01:02:01.005Z,1015.1
2018-01-15T01:03:03.412Z,1015
2018-01-15T01:04:06.119Z,1015
2018-01-15T01:05:08.512Z,1014.9
2018-01-15T01:06:10.916Z,1014.9
2018-01-15T01:07:13.321Z,1015
2018-01-15T01:08:15.729Z,1014.9
2018-01-15T01:09:18.714Z,1014.9
2018-01-15T01:10:21.103Z,1014.9
2018-01-15T01:11:23.508Z,1014.8
2018-01-15T01:12:25.922Z,1014.8
2018-01-15T01:13:28.318Z,1014.8
2018-01-15T01:14:30.720Z,1014.8
2018-01-15T01:15:33.118Z,1014.8
2018-01-15T01:16:35.805Z,1014.8
2018-01-15T01:17:38.212Z,1014.7
2018-01-15T01:18:40.620Z,1014.7
2018-01-15T01:19:43.007Z,1014.7
2018-01-15T01:20:45.419Z,1014.7
2018-01-15T01:21:48.107Z,1014.7
2018-01-15T01:22:50.781Z,1014.7
2018-01-15T01:23:53.185Z,1014.7
2018-01-15T01:24:55.588Z,1014.6
2018-01-15T01:25:57.985Z,1014.6
2018-01-15T01:27:00.673Z,1014.6
2018-01-15T01:28:03.372Z,1014.6
2018-01-15T01:29:06.073Z,1014.5
2018-01-15T01:30:08.765Z,1014.5
2018-01-15T01:31:11.150Z,1014.5
2018-01-15T01:32:13.859Z,1014.5
2018-01-15T01:33:16.254Z,1014.5
2018-01-15T01:34:18.658Z,1014.5
2018-01-15T01:35:21.070Z,1014.4
2018-01-15T01:36:23.456Z,1014.4
2018-01-15T01:37:25.861Z,1014.4
2018-01-15T01:38:28.270Z,1014.3
2018-01-15T01:39:30.669Z,1014.3
2018-01-15T01:40:33.071Z,1014.4
2018-01-15T01:41:35.750Z,1014.3
2018-01-15T01:42:38.148Z,1014.3
2018-01-15T01:43:40.559Z,1014.3
2018-01-15T01:44:42.962Z,1014.3
2018-01-15T01:45:45.356Z,1014.3
2018-01-15T01:46:47.769Z,1014.3
2018-01-15T01:47:50.171Z,1014.3
2018-01-15T01:48:52.573Z,1014.3
2018-01-15T01:49:54.975Z,1014.3
2018-01-15T01:50:57.383Z,1014.3
2018-01-15T01:52:00.089Z,1014.2
2018-01-15T01:53:02.480Z,1014.3
2018-01-15T01:54:04.882Z,1014.2
2018-01-15T01:55:07.295Z,1014.3
2018-01-15T01:56:09.696Z,1014.2
2018-01-15T01:57:12.098Z,1014.2
2018-01-15T01:58:14.500Z,1014.2
2018-01-15T01:59:16.909Z,1014.2
2018-01-15T02:00:19.310Z,1014.1
2018-01-15T02:01:21.720Z,1014
2018-01-15T02:02:24.113Z,1014
2018-01-15T02:03:26.513Z,1014
2018-01-15T02:04:28.916Z,1013.9
2018-01-15T02:05:31.327Z,1013.9
2018-01-15T02:06:33.723Z,1013.9
2018-01-15T02:07:36.121Z,1013.9
2018-01-15T02:08:38.513Z,1013.8
2018-01-15T02:09:41.213Z,1013.8
2018-01-15T02:10:43.618Z,1013.8
2018-01-15T02:11:46.296Z,1013.8
2018-01-15T02:12:48.704Z,1013.8
2018-01-15T02:13:51.105Z,1013.8
2018-01-15T02:14:54.096Z,1013.6
2018-01-15T02:15:56.788Z,1013.7
2018-01-15T02:16:59.176Z,1013.7
2018-01-15T02:18:01.579Z,1013.6
2018-01-15T02:19:04.252Z,1013.5
2018-01-15T02:20:06.651Z,1013.6
2018-01-15T02:21:09.049Z,1013.5
2018-01-15T02:22:11.451Z,1013.5
2018-01-15T02:23:13.854Z,1013.6
2018-01-15T02:24:16.252Z,1013.4
2018-01-15T02:25:18.657Z,1013.5
2018-01-15T02:26:21.064Z,1013.5
2018-01-15T02:27:23.457Z,1013.5
2018-01-15T02:28:25.865Z,1013.5
2018-01-15T02:29:28.270Z,1013.5
2018-01-15T02:30:30.670Z,1013.4
2018-01-15T02:31:33.075Z,1013.4
2018-01-15T02:32:35.473Z,1013.3
2018-01-15T02:33:37.876Z,1013.2
2018-01-15T02:34:40.277Z,1013.3
2018-01-15T02:35:42.672Z,1013.2
2018-01-15T02:36:45.070Z,1013.2
2018-01-15T02:37:47.472Z,1013.1
2018-01-15T02:38:49.867Z,1013.1
2018-01-15T02:39:52.275Z,1013.1
2018-01-15T02:40:54.683Z,1013.1
2018-01-15T02:41:57.080Z,1013.2
2018-01-15T02:42:59.485Z,1013
2018-01-15T02:44:01.899Z,1013.1
2018-01-15T02:45:04.301Z,1013.1
2018-01-15T02:46:06.704Z,1013.1
2018-01-15T02:47:09.106Z,1013
2018-01-15T02:48:11.506Z,1013
2018-01-15T02:49:13.904Z,1013
2018-01-15T02:50:16.313Z,1012.9
2018-01-15T02:51:19.006Z,1012.9
2018-01-15T02:52:21.411Z,1012.9
2018-01-15T02:53:23.809Z,1012.9
2018-01-15T02:54:26.510Z,1012.9
2018-01-15T02:55:29.198Z,1012.9
2018-01-15T02:56:31.593Z,1012.9
2018-01-15T02:57:33.999Z,1012.7
2018-01-15T02:58:36.398Z,1012.8
2018-01-15T02:59:38.800Z,1012.8
2018-01-15T03:00:41.206Z,1012.8
2018-01-15T03:01:43.601Z,1013
2018-01-15T03:02:46.285Z,1012.9
2018-01-15T03:03:48.984Z,1012.7
2018-01-15T03:04:51.388Z,1012.8
2018-01-15T03:05:54.074Z,1012.8
2018-01-15T03:06:57.047Z,1012.8
2018-01-15T03:07:59.437Z,1012.7
2018-01-15T03:09:01.857Z,1012.7
2018-01-15T03:10:04.262Z,1012.7
2018-01-15T03:11:06.665Z,1012.7
2018-01-15T03:12:09.063Z,1012.6
2018-01-15T03:13:11.464Z,1012.5
2018-01-15T03:14:13.867Z,1012.4
2018-01-15T03:15:16.267Z,1012.4
2018-01-15T03:16:18.662Z,1012.4
2018-01-15T03:17:21.060Z,1012.3
2018-01-15T03:18:23.475Z,1012.4
2018-01-15T03:19:25.875Z,1012.3
2018-01-15T03:20:28.557Z,1012.3
2018-01-15T03:21:30.960Z,1012.3
2018-01-15T03:22:33.370Z,1012.3
2018-01-15T03:23:35.764Z,1012.3
2018-01-15T03:24:38.177Z,1012.4
2018-01-15T03:25:40.568Z,1012.3
2018-01-15T03:26:42.973Z,1012.3
2018-01-15T03:27:45.373Z,1012.3
2018-01-15T03:28:47.779Z,1012.3
2018-01-15T03:29:50.180Z,1012.3
2018-01-15T03:30:52.587Z,1012.2
2018-01-15T03:31:54.988Z,1012.2
2018-01-15T03:32:57.396Z,1012.2
2018-01-15T03:33:59.789Z,1012.2
2018-01-15T03:35:02.203Z,1012.2
2018-01-15T03:36:04.612Z,1012.2
2018-01-15T03:37:07.006Z,1012.2
2018-01-15T03:38:09.409Z,1012.2
2018-01-15T03:39:11.816Z,1012.1
2018-01-15T03:40:14.212Z,1012.1
2018-01-15T03:41:16.615Z,1012.1
2018-01-15T03:42:19.008Z,1012.1
2018-01-15T03:43:21.406Z,1012.1
2018-01-15T03:44:23.827Z,1012.1
2018-01-15T03:45:26.227Z,1012.1
2018-01-15T03:46:28.637Z,1012
2018-01-15T03:47:31.041Z,1012
2018-01-15T03:48:33.450Z,1012
2018-01-15T03:49:36.119Z,1011.9
2018-01-15T03:50:38.519Z,1011.9
2018-01-15T03:51:41.219Z,1011.9
2018-01-15T03:52:43.618Z,1012
2018-01-15T03:53:46.025Z,1012
2018-01-15T03:54:48.754Z,1012
2018-01-15T03:55:51.149Z,1011.9
2018-01-15T03:56:53.563Z,1011.9
2018-01-15T03:57:55.962Z,1011.9
2018-01-15T03:58:58.651Z,1012
2018-01-15T04:00:01.063Z,1011.8
2018-01-15T04:01:04.038Z,1011.8
2018-01-15T04:02:06.442Z,1011.8
2018-01-15T04:03:09.119Z,1011.8
2018-01-15T04:04:11.520Z,1011.7
2018-01-15T04:05:13.930Z,1011.8
2018-01-15T04:06:16.340Z,1011.8
2018-01-15T04:07:18.738Z,1011.8
2018-01-15T04:08:21.131Z,1011.7
2018-01-15T04:09:23.535Z,1011.8
2018-01-15T04:10:25.937Z,1011.7
2018-01-15T04:11:28.345Z,1011.6
2018-01-15T04:12:30.743Z,1011.8
2018-01-15T04:13:33.145Z,1011.8
2018-01-15T04:14:35.548Z,1011.7
2018-01-15T04:15:38.252Z,1011.6
2018-01-15T04:16:40.653Z,1011.6
2018-01-15T04:17:43.058Z,1011.6
2018-01-15T04:18:45.459Z,1011.5
2018-01-15T04:19:47.854Z,1011.6
2018-01-15T04:20:50.548Z,1011.4
2018-01-15T04:21:52.941Z,1011.4
2018-01-15T04:22:55.361Z,1011.4
2018-01-15T04:23:57.765Z,1011.4
2018-01-15T04:25:00.158Z,1011.3
2018-01-15T04:26:02.568Z,1011.3
2018-01-15T04:27:04.966Z,1011.3
2018-01-15T04:28:07.375Z,1011.3
2018-01-15T04:29:09.778Z,1011.3
2018-01-15T04:30:12.168Z,1011.2
2018-01-15T04:31:14.569Z,1011.4
2018-01-15T04:32:16.985Z,1011.3
2018-01-15T04:33:19.669Z,1011.3
2018-01-15T04:34:22.073Z,1011.3
2018-01-15T04:35:24.475Z,1011.3
2018-01-15T04:36:26.872Z,1011.2
2018-01-15T04:37:29.284Z,1011.2
2018-01-15T04:38:31.679Z,1011.2
2018-01-15T04:39:34.070Z,1011.2
2018-01-15T04:40:36.759Z,1011.2
2018-01-15T04:41:39.158Z,1011.2
2018-01-15T04:42:41.552Z,1011.1
2018-01-15T04:43:43.964Z,1011.1
2018-01-15T04:44:46.362Z,1011.1
2018-01-15T04:45:48.771Z,1011.2
2018-01-15T04:46:51.176Z,1011.1
2018-01-15T04:47:53.895Z,1011
2018-01-15T04:48:56.284Z,1011
2018-01-15T04:49:58.690Z,1011
2018-01-15T04:51:01.089Z,1011
2018-01-15T04:52:03.484Z,1010.9
2018-01-15T04:53:06.192Z,1010.9
2018-01-15T04:54:08.885Z,1010.8
2018-01-15T04:55:11.283Z,1010.8
2018-01-15T04:56:13.708Z,1010.8
2018-01-15T04:57:16.096Z,1010.8
2018-01-15T04:58:18.505Z,1010.8
2018-01-15T04:59:20.902Z,1010.7
2018-01-15T05:00:23.304Z,1010.8
2018-01-15T05:01:25.702Z,1010.8
2018-01-15T05:02:28.108Z,1010.7
2018-01-15T05:03:30.502Z,1010.7
2018-01-15T05:04:32.900Z,1010.6
2018-01-15T05:05:35.293Z,1010.7
2018-01-15T05:06:37.704Z,1010.7
2018-01-15T05:07:40.096Z,1010.6
2018-01-15T05:08:42.504Z,1010.7
2018-01-15T05:09:44.916Z,1010.6
2018-01-15T05:10:47.608Z,1010.6
2018-01-15T05:11:50.316Z,1010.6
2018-01-15T05:12:52.708Z,1010.5
2018-01-15T05:13:55.101Z,1010.6
2018-01-15T05:14:57.518Z,1010.5
2018-01-15T05:15:59.917Z,1010.5
2018-01-15T05:17:02.310Z,1010.4
2018-01-15T05:18:04.715Z,1010.4
2018-01-15T05:19:07.116Z,1010.4
2018-01-15T05:20:09.526Z,1010.4
2018-01-15T05:21:12.246Z,1010.4
2018-01-15T05:22:14.600Z,1010.4
2018-01-15T05:23:17.013Z,1010.4
2018-01-15T05:24:19.414Z,1010.4
2018-01-15T05:25:21.823Z,1010.3
2018-01-15T05:26:24.224Z,1010.3
2018-01-15T05:27:26.620Z,1010.3
2018-01-15T05:28:29.010Z,1010.3
2018-01-15T05:29:31.428Z,1010.3
2018-01-15T05:30:34.112Z,1010.3
2018-01-15T05:31:36.510Z,1010.3
2018-01-15T05:32:38.930Z,1010.2
2018-01-15T05:33:41.319Z,1010.3
2018-01-15T05:34:43.724Z,1010.2
2018-01-15T05:35:46.119Z,1010.1
2018-01-15T05:36:48.519Z,1010.2
2018-01-15T05:37:51.230Z,1010.1
2018-01-15T05:38:53.927Z,1010.2
2018-01-15T05:39:56.327Z,1010.1
2018-01-15T05:40:58.744Z,1010.1
2018-01-15T05:42:01.434Z,1010.1
2018-01-15T05:43:04.411Z,1010.1
2018-01-15T05:44:06.820Z,1010.2
2018-01-15T05:45:09.214Z,1010.1
2018-01-15T05:46:11.616Z,1010
2018-01-15T05:47:14.012Z,1010
2018-01-15T05:48:16.417Z,1010
2018-01-15T05:49:18.820Z,1010
2018-01-15T05:50:21.222Z,1009.9
2018-01-15T05:51:23.627Z,1010
2018-01-15T05:52:26.312Z,1010
2018-01-15T05:53:28.704Z,1009.8
2018-01-15T05:54:31.122Z,1009.8
2018-01-15T05:55:33.503Z,1009.8
2018-01-15T05:56:36.194Z,1009.7
2018-01-15T05:57:38.597Z,1009.7
2018-01-15T05:58:41.001Z,1009.6
2018-01-15T05:59:43.690Z,1009.6
2018-01-15T06:00:46.096Z,1009.7
2018-01-15T06:01:48.778Z,1009.6
2018-01-15T06:02:51.181Z,1009.7
2018-01-15T06:03:53.589Z,1009.6
2018-01-15T06:04:55.976Z,1009.6
2018-01-15T06:05:58.391Z,1009.5
2018-01-15T06:07:00.796Z,1009.6
2018-01-15T06:08:03.198Z,1009.6
2018-01-15T06:09:05.607Z,1009.6
2018-01-15T06:10:08.005Z,1009.5
2018-01-15T06:11:10.404Z,1009.5
2018-01-15T06:12:12.811Z,1009.6
2018-01-15T06:13:15.206Z,1009.7
2018-01-15T06:14:18.172Z,1009.6
2018-01-15T06:15:20.573Z,1009.6
2018-01-15T06:16:22.973Z,1009.5
2018-01-15T06:17:25.366Z,1009.5
2018-01-15T06:18:27.772Z,1009.5
2018-01-15T06:19:30.454Z,1009.5
2018-01-15T06:20:32.870Z,1009.5
2018-01-15T06:21:35.268Z,1009.5
2018-01-15T06:22:37.948Z,1009.5
2018-01-15T06:23:40.355Z,1009.4
2018-01-15T06:24:42.763Z,1009.5
2018-01-15T06:25:45.161Z,1009.4
2018-01-15T06:26:47.576Z,1009.4
2018-01-15T06:27:49.963Z,1009.4
2018-01-15T06:28:52.381Z,1009.4
2018-01-15T06:29:54.786Z,1009.3
2018-01-15T06:30:57.191Z,1009.3
2018-01-15T06:31:59.598Z,1009.3
2018-01-15T06:33:01.996Z,1009.3
2018-01-15T06:34:04.679Z,1009.3
2018-01-15T06:35:07.086Z,1009.3
2018-01-15T06:36:09.492Z,1009.3
2018-01-15T06:37:11.887Z,1009.3
2018-01-15T06:38:14.305Z,1009.3
2018-01-15T06:39:16.691Z,1009.3
2018-01-15T06:40:19.094Z,1009.3
2018-01-15T06:41:21.499Z,1009.3
2018-01-15T06:42:23.895Z,1009.3
2018-01-15T06:43:26.304Z,1009.3
2018-01-15T06:44:28.713Z,1009.3
2018-01-15T06:45:31.109Z,1009.3
2018-01-15T06:46:33.520Z,1009.2
2018-01-15T06:47:36.207Z,1009.3
2018-01-15T06:48:38.609Z,1009.2
2018-01-15T06:49:41.009Z,1009.2
2018-01-15T06:50:43.411Z,1009.2
2018-01-15T06:51:45.809Z,1009.1
2018-01-15T06:52:48.199Z,1009.1
2018-01-15T06:53:50.607Z,1009
2018-01-15T06:54:53.285Z,1009
2018-01-15T06:55:55.697Z,1009
2018-01-15T06:56:58.379Z,1009
2018-01-15T06:58:01.372Z,1008.9
2018-01-15T06:59:03.776Z,1009
2018-01-15T07:00:06.180Z,1008.9
2018-01-15T07:01:08.578Z,1008.9
2018-01-15T07:02:11.273Z,1008.8
2018-01-15T07:03:13.681Z,1008.8
2018-01-15T07:04:16.069Z,1008.8
2018-01-15T07:05:18.471Z,1008.8
2018-01-15T07:06:20.878Z,1008.8
2018-01-15T07:07:23.281Z,1008.7
2018-01-15T07:08:25.684Z,1008.8
2018-01-15T07:09:28.088Z,1008.8
2018-01-15T07:10:30.524Z,1008.8
2018-01-15T07:11:32.895Z,1008.7
2018-01-15T07:12:35.303Z,1008.7
2018-01-15T07:13:37.696Z,1008.7
2018-01-15T07:14:40.099Z,1008.7
2018-01-15T07:15:42.498Z,1008.6
2018-01-15T07:16:44.900Z,1008.7
2018-01-15T07:17:47.304Z,1008.5
2018-01-15T07:18:49.699Z,1008.7
2018-01-15T07:19:52.106Z,1008.5
2018-01-15T07:20:54.501Z,1008.5
2018-01-15T07:21:57.470Z,1008.5
2018-01-15T07:22:59.880Z,1008.5
2018-01-15T07:24:02.282Z,1008.5
2018-01-15T07:25:04.681Z,1008.3
2018-01-15T07:26:07.085Z,1008.4
2018-01-15T07:27:09.482Z,1008.4
2018-01-15T07:28:11.899Z,1008.4
2018-01-15T07:29:14.869Z,1008.4
2018-01-15T07:30:17.264Z,1008.4
2018-01-15T07:31:19.669Z,1008.4
2018-01-15T07:32:22.078Z,1008.5
2018-01-15T07:33:24.760Z,1008.5
2018-01-15T07:34:27.172Z,1008.1
2018-01-15T07:35:29.845Z,1008.3
2018-01-15T07:36:32.244Z,1008.3
2018-01-15T07:37:34.647Z,1008.3
2018-01-15T07:38:37.046Z,1008.3
2018-01-15T07:39:39.449Z,1008.1
2018-01-15T07:40:41.850Z,1008.2
2018-01-15T07:41:44.252Z,1008.2
2018-01-15T07:42:46.662Z,1008.1
2018-01-15T07:43:49.359Z,1008.2
2018-01-15T07:44:51.751Z,1008.2
2018-01-15T07:45:54.149Z,1008.2
2018-01-15T07:46:56.961Z,1008.2
2018-01-15T07:47:59.650Z,1008.2
2018-01-15T07:49:03.160Z,1008.2
2018-01-15T07:50:05.857Z,1008
2018-01-15T07:51:08.631Z,1008.1
2018-01-15T07:52:11.895Z,1008.1
2018-01-15T07:53:15.133Z,1008
2018-01-15T07:54:19.214Z,1008
2018-01-15T07:55:23.292Z,1008
2018-01-15T07:56:26.635Z,1007.9
2018-01-15T07:57:30.897Z,1007.9
2018-01-15T07:58:33.455Z,1007.9
2018-01-15T07:59:35.858Z,1007.9
2018-01-15T08:00:38.255Z,1007.8
2018-01-15T08:01:40.661Z,1007.8
2018-01-15T08:02:43.051Z,1007.8
2018-01-15T08:03:45.742Z,1007.8
2018-01-15T08:04:48.423Z,1007.8
2018-01-15T08:05:50.829Z,1007.7
2018-01-15T08:06:53.223Z,1007.7
2018-01-15T08:07:55.629Z,1007.7
2018-01-15T08:08:58.036Z,1007.7
2018-01-15T08:10:00.452Z,1007.6
2018-01-15T08:11:02.862Z,1007.7
2018-01-15T08:12:05.265Z,1007.6
2018-01-15T08:13:07.668Z,1007.5
2018-01-15T08:14:10.358Z,1007.4
2018-01-15T08:15:13.326Z,1007.5
2018-01-15T08:16:16.006Z,1007.4
2018-01-15T08:17:18.411Z,1007.5
2018-01-15T08:18:21.116Z,1007.5
2018-01-15T08:19:23.526Z,1007.4
2018-01-15T08:20:26.212Z,1007.5
2018-01-15T08:21:28.627Z,1007.4
2018-01-15T08:22:31.043Z,1007.3
2018-01-15T08:23:33.446Z,1007.3
2018-01-15T08:24:36.130Z,1007.3
2018-01-15T08:25:38.526Z,1007.3
2018-01-15T08:26:40.923Z,1007.3
2018-01-15T08:27:43.330Z,1007.4
2018-01-15T08:28:45.732Z,1007.3
2018-01-15T08:29:48.433Z,1007.4
2018-01-15T08:30:51.116Z,1007.3
2018-01-15T08:31:53.511Z,1007.2
2018-01-15T08:32:55.933Z,1007.2
2018-01-15T08:33:58.340Z,1007.2
2018-01-15T08:35:00.735Z,1007.2
2018-01-15T08:36:03.143Z,1007.2
2018-01-15T08:37:05.552Z,1007.2
2018-01-15T08:38:07.959Z,1007.2
2018-01-15T08:39:10.369Z,1007.1
2018-01-15T08:40:12.765Z,1007.1
2018-01-15T08:41:15.173Z,1007
2018-01-15T08:42:17.585Z,1007.1
2018-01-15T08:43:20.012Z,1007.1
2018-01-15T08:44:22.378Z,1007.1
2018-01-15T08:45:24.783Z,1007
2018-01-15T08:46:27.191Z,1007.1
2018-01-15T08:47:29.658Z,1007
2018-01-15T08:48:32.004Z,1007
2018-01-15T08:49:34.410Z,1007.1
2018-01-15T08:50:36.817Z,1007
2018-01-15T08:51:39.221Z,1007
2018-01-15T08:52:41.624Z,1007
2018-01-15T08:53:44.020Z,1006.9
2018-01-15T08:54:46.431Z,1007
2018-01-15T08:55:49.106Z,1006.8
2018-01-15T08:56:51.526Z,1007
2018-01-15T08:57:53.926Z,1006.9
2018-01-15T08:58:56.338Z,1006.9
2018-01-15T08:59:59.013Z,1006.9
2018-01-15T09:01:01.701Z,1006.9
2018-01-15T09:02:04.102Z,1006.8
2018-01-15T09:03:07.073Z,1006.7
2018-01-15T09:04:09.523Z,1006.8
2018-01-15T09:05:11.892Z,1006.7
2018-01-15T09:06:14.587Z,1006.7
2018-01-15T09:07:17.006Z,1006.7
2018-01-15T09:08:19.404Z,1006.6
2018-01-15T09:09:21.814Z,1006.6
2018-01-15T09:10:24.215Z,1006.6
2018-01-15T09:11:26.622Z,1006.7
2018-01-15T09:12:29.023Z,1006.6
2018-01-15T09:13:31.438Z,1006.5
2018-01-15T09:14:34.136Z,1006.6
2018-01-15T09:15:36.548Z,1006.5
2018-01-15T09:16:39.244Z,1006.5
2018-01-15T09:17:41.631Z,1006.5
2018-01-15T09:18:44.031Z,1006.5
2018-01-15T09:19:46.577Z,1006.5
2018-01-15T09:20:49.975Z,1006.3
2018-01-15T09:21:52.578Z,1006.3
2018-01-15T09:22:55.329Z,1006.3
2018-01-15T09:23:57.775Z,1006.2
2018-01-15T09:25:00.494Z,1006.2
2018-01-15T09:26:02.911Z,1006.2
2018-01-15T09:27:05.312Z,1006
2018-01-15T09:28:07.719Z,1006.2
2018-01-15T09:29:10.120Z,1006.1
2018-01-15T09:30:12.529Z,1006.1
2018-01-15T09:31:14.939Z,1006.1
2018-01-15T09:32:17.369Z,1006.1
2018-01-15T09:33:19.741Z,1006.1
2018-01-15T09:34:22.151Z,1006.1
2018-01-15T09:35:24.553Z,1006.1
2018-01-15T09:36:27.240Z,1006
2018-01-15T09:37:29.645Z,1006
2018-01-15T09:38:32.040Z,1006
2018-01-15T09:39:34.770Z,1006
2018-01-15T09:40:37.176Z,1005.9
2018-01-15T09:41:39.566Z,1006
2018-01-15T09:42:41.980Z,1005.9
2018-01-15T09:43:44.379Z,1005.8
2018-01-15T09:44:46.784Z,1005.9
2018-01-15T09:45:49.476Z,1005.9
2018-01-15T09:46:51.879Z,1006
2018-01-15T09:47:54.286Z,1005.9
2018-01-15T09:48:56.680Z,1005.9
2018-01-15T09:49:59.085Z,1005.9
2018-01-15T09:51:01.505Z,1005.8
2018-01-15T09:52:04.256Z,1005.8
2018-01-15T09:53:07.634Z,1005.8
2018-01-15T09:54:10.712Z,1005.7
2018-01-15T09:55:13.484Z,1005.7
2018-01-15T09:56:16.465Z,1005.7
2018-01-15T09:57:19.036Z,1005.7
2018-01-15T09:58:21.992Z,1005.7
2018-01-15T09:59:24.703Z,1005.8
2018-01-15T10:00:27.171Z,1005.7
2018-01-15T10:01:29.944Z,1005.6
2018-01-15T10:02:32.424Z,1005.6
2018-01-15T10:03:34.819Z,1005.6
2018-01-15T10:04:37.223Z,1005.6
2018-01-15T10:05:39.644Z,1005.5
2018-01-15T10:06:42.034Z,1005.5
2018-01-15T10:07:44.432Z,1005.4
2018-01-15T10:08:46.836Z,1005.4
2018-01-15T10:09:49.242Z,1005.4
2018-01-15T10:10:51.655Z,1005.4
2018-01-15T10:11:54.066Z,1005.5
2018-01-15T10:12:56.749Z,1005.5
2018-01-15T10:13:59.157Z,1005.3
2018-01-15T10:15:01.579Z,1005.3
2018-01-15T10:16:03.983Z,1005.3
2018-01-15T10:17:06.378Z,1005.2
2018-01-15T10:18:09.076Z,1005.4
2018-01-15T10:19:11.476Z,1005.3
2018-01-15T10:20:13.875Z,1005.2
2018-01-15T10:21:16.572Z,1005.2
2018-01-15T10:22:18.970Z,1005.2
2018-01-15T10:23:21.374Z,1005
2018-01-15T10:24:23.792Z,1005.1
2018-01-15T10:25:26.194Z,1005
2018-01-15T10:26:28.596Z,1005
2018-01-15T10:27:31.017Z,1005
2018-01-15T10:28:33.410Z,1004.9
2018-01-15T10:29:35.825Z,1004.9
2018-01-15T10:30:38.522Z,1004.9
2018-01-15T10:31:40.922Z,1004.8
2018-01-15T10:32:43.333Z,1004.8
2018-01-15T10:33:45.733Z,1004.7
2018-01-15T10:34:48.134Z,1004.8
2018-01-15T10:35:50.540Z,1004.7
2018-01-15T10:36:53.232Z,1004.6
2018-01-15T10:37:56.194Z,1004.5
2018-01-15T10:38:58.616Z,1004.5
2018-01-15T10:40:01.026Z,1004.4
2018-01-15T10:41:03.433Z,1004.4
2018-01-15T10:42:05.847Z,1004.4
2018-01-15T10:43:08.246Z,1004.3
2018-01-15T10:44:10.654Z,1004.3
2018-01-15T10:45:13.062Z,1004.2
2018-01-15T10:46:15.473Z,1004.2
2018-01-15T10:47:17.882Z,1004.3
2018-01-15T10:48:20.274Z,1004.3
2018-01-15T10:49:22.692Z,1004.2
2018-01-15T10:50:25.099Z,1004.4
2018-01-15T10:51:27.505Z,1004.2
2018-01-15T10:52:29.911Z,1004.1
2018-01-15T10:53:32.318Z,1004
2018-01-15T10:54:34.721Z,1004
2018-01-15T10:55:37.135Z,1003.9
2018-01-15T10:56:39.532Z,1004
2018-01-15T10:57:41.938Z,1004.1
2018-01-15T10:58:44.346Z,1003.9
2018-01-15T10:59:46.757Z,1003.9
2018-01-15T11:00:49.169Z,1003.9
2018-01-15T11:01:51.581Z,1003.8
2018-01-15T11:02:53.984Z,1003.7
2018-01-15T11:03:56.400Z,1003.6
2018-01-15T11:04:58.802Z,1003.5
2018-01-15T11:06:01.215Z,1003.6
2018-01-15T11:07:03.620Z,1003.6
2018-01-15T11:08:06.026Z,1003.6
2018-01-15T11:09:08.435Z,1003.5
2018-01-15T11:10:10.850Z,1003.3
2018-01-15T11:11:13.249Z,1003.5
2018-01-15T11:12:15.653Z,1003.3
2018-01-15T11:13:18.350Z,1003.4
2018-01-15T11:14:20.761Z,1003.4
2018-01-15T11:15:23.163Z,1003.3
2018-01-15T11:16:25.567Z,1003.3
2018-01-15T11:17:27.981Z,1003.4
2018-01-15T11:18:30.667Z,1003.2
2018-01-15T11:19:33.072Z,1003.2
2018-01-15T11:20:35.485Z,1003.1
2018-01-15T11:21:38.234Z,1003.2
2018-01-15T11:22:40.916Z,1003.2
2018-01-15T11:23:43.337Z,1003.2
2018-01-15T11:24:45.740Z,1003.1
2018-01-15T11:25:48.482Z,1003.1
2018-01-15T11:26:50.893Z,1003
2018-01-15T11:27:53.745Z,1003
2018-01-15T11:28:56.142Z,1003.1
2018-01-15T11:29:58.553Z,1003.2
2018-01-15T11:31:00.964Z,1003.1
2018-01-15T11:32:03.376Z,1003.1
2018-01-15T11:33:06.078Z,1003.1
2018-01-15T11:34:08.480Z,1003
2018-01-15T11:35:10.883Z,1003.1
2018-01-15T11:36:13.290Z,1003
2018-01-15T11:37:15.686Z,1003
2018-01-15T11:38:18.093Z,1002.9
2018-01-15T11:39:20.502Z,1002.9
2018-01-15T11:40:22.906Z,1002.8
2018-01-15T11:41:25.318Z,1003
2018-01-15T11:42:27.732Z,1002.8
2018-01-15T11:43:30.133Z,1002.9
2018-01-15T11:44:32.534Z,1002.8
2018-01-15T11:45:34.936Z,1002.7
2018-01-15T11:46:37.640Z,1002.8
2018-01-15T11:47:40.322Z,1002.7
2018-01-15T11:48:42.732Z,1002.7
2018-01-15T11:49:45.141Z,1002.5
2018-01-15T11:50:47.549Z,1002.5
2018-01-15T11:51:49.968Z,1002.4
2018-01-15T11:52:52.370Z,1002.4
2018-01-15T11:53:54.770Z,1002.4
2018-01-15T11:54:57.189Z,1002.3
2018-01-15T11:55:59.884Z,1002.4
2018-01-15T11:57:02.281Z,1002.4
2018-01-15T11:58:04.687Z,1002.2
2018-01-15T11:59:07.099Z,1002.3
2018-01-15T12:00:09.501Z,1002.3
2018-01-15T12:01:11.920Z,1002.2
2018-01-15T12:02:14.591Z,1002.2
2018-01-15T12:03:17.001Z,1002.2
2018-01-15T12:04:19.693Z,1002.2
2018-01-15T12:05:22.094Z,1002
2018-01-15T12:06:24.499Z,1002
2018-01-15T12:07:26.905Z,1002
2018-01-15T12:08:29.313Z,1002.1
2018-01-15T12:09:31.730Z,1001.9
2018-01-15T12:10:34.148Z,1001.9
2018-01-15T12:11:37.124Z,1001.8
2018-01-15T12:12:39.526Z,1001.8
2018-01-15T12:13:42.231Z,1001.9
2018-01-15T12:14:44.923Z,1001.8
2018-01-15T12:15:47.631Z,1001.8
2018-01-15T12:16:50.860Z,1001.7
2018-01-15T12:17:53.316Z,1001.8
2018-01-15T12:18:56.006Z,1001.7
2018-01-15T12:19:58.435Z,1001.7
2018-01-15T12:21:01.106Z,1001.6
2018-01-15T12:22:03.830Z,1001.6
2018-01-15T12:23:06.529Z,1001.6
2018-01-15T12:24:08.936Z,1001.5
2018-01-15T12:25:11.340Z,1001.5
2018-01-15T12:26:14.033Z,1001.4
2018-01-15T12:27:16.431Z,1001.4
2018-01-15T12:28:18.852Z,1001.4
2018-01-15T12:29:21.259Z,1001.3
2018-01-15T12:30:23.674Z,1001.4
2018-01-15T12:31:26.088Z,1001.4
2018-01-15T12:32:28.501Z,1001.3
2018-01-15T12:33:31.202Z,1001.2
2018-01-15T12:34:33.622Z,1001.3
2018-01-15T12:35:36.017Z,1001.2
2018-01-15T12:36:38.435Z,1001.1
2018-01-15T12:37:40.851Z,1001.2
2018-01-15T12:38:43.260Z,1001.3
2018-01-15T12:39:45.940Z,1001.1
2018-01-15T12:40:48.345Z,1001.2
2018-01-15T12:41:50.749Z,1001.1
2018-01-15T12:42:53.151Z,1001.1
2018-01-15T12:43:55.562Z,1001
2018-01-15T12:44:57.978Z,1000.9
2018-01-15T12:46:00.389Z,1000.9
2018-01-15T12:47:02.792Z,1000.9
2018-01-15T12:48:05.201Z,1001
2018-01-15T12:49:07.617Z,1001
2018-01-15T12:50:10.025Z,1000.9
2018-01-15T12:51:12.711Z,1000.9
2018-01-15T12:52:15.393Z,1000.9
2018-01-15T12:53:18.376Z,1000.8
2018-01-15T12:54:20.802Z,1000.9
2018-01-15T12:55:23.491Z,1000.9
2018-01-15T12:56:25.901Z,1000.9
2018-01-15T12:57:28.302Z,1000.9
2018-01-15T12:58:30.704Z,1000.9
2018-01-15T12:59:33.127Z,1000.8
2018-01-15T13:00:35.537Z,1000.9
2018-01-15T13:01:37.935Z,1000.9
2018-01-15T13:02:40.348Z,1000.8
2018-01-15T13:03:42.754Z,1000.8
2018-01-15T13:04:45.171Z,1000.9